Time;durP1;ratioP1;P1;durP2;ratioP2;P2;SDS_P1;SDS_P2;PMS_P1;PMS_P2;Temp;Humidity;BMP_temperature;BMP_pressure;BME280_temperature;BME280_humidity;BME280_pressure;Samples;Min_cycle;Max_cycle;Signal;HPM_P1;HPM_P2
2021/08/13 00:00:17;;;;;;;;;;;;;;;25.96;70.46;100257.53;2072524;28;20215;-63
2021/08/13 00:01:18;;;;;;;;;;;;;;;25.96;70.33;100264.97;2073996;28;19921;-62
2021/08/13 00:02:18;;;;;;;;;;;;;;;25.94;70.59;100256.88;2073770;28;19921;-62
2021/08/13 00:03:20;;;;;;;;;;;;;;;25.94;70.58;100267.06;2075021;28;20076;-62
2021/08/13 00:04:20;;;;;;;;;;;;;;;25.93;70.29;100260.69;2073681;28;20019;-62
2021/08/13 00:05:20;;;;;;;;;;;;;;;25.92;70.34;100264.50;2073917;28;19928;-63
2021/08/13 00:06:21;;;;;;;;;;;;;;;25.92;70.60;100264.50;2071815;28;19920;-63
2021/08/13 00:07:21;;;;;;;;;;;;;;;25.91;70.50;100259.16;2074688;28;19921;-62
2021/08/13 00:08:21;;;;;;;;;;;;;;;25.89;70.56;100262.09;2072058;28;20945;-63
2021/08/13 00:09:22;;;;;;;;;;;;;;;25.88;70.49;100258.50;2073527;28;19920;-63
2021/08/13 00:10:22;;;;;;;;;;;;;;;25.87;70.26;100267.84;2074055;28;19920;-63
2021/08/13 00:11:22;;;;;;;;;;;;;;;25.86;70.14;100256.97;2072749;28;19920;-63
2021/08/13 00:12:23;;;;;;;;;;;;;;;25.86;70.60;100266.09;2073747;28;19961;-63
2021/08/13 00:13:23;;;;;;;;;;;;;;;25.86;70.43;100265.25;2073478;28;19924;-63
2021/08/13 00:14:23;;;;;;;;;;;;;;;25.87;70.50;100266.97;2068272;28;19927;-63
2021/08/13 00:15:24;;;;;;;;;;;;;;;25.86;70.27;100259.72;2071822;28;19971;-63
2021/08/13 00:16:24;;;;;;;;;;;;;;;25.86;70.44;100271.63;2071690;28;19921;-63
2021/08/13 00:17:25;;;;;;;;;;;;;;;25.87;70.53;100266.97;2072975;28;19928;-63
2021/08/13 00:18:25;;;;;;;;;;;;;;;25.88;70.32;100274.22;2072543;28;19921;-63
2021/08/13 00:19:26;;;;;;;;;;;;;;;25.87;70.24;100269.72;2074331;28;19925;-63
2021/08/13 00:20:27;;;;;;;;;;;;;;;25.86;70.35;100266.09;2073225;28;19920;-63
2021/08/13 00:21:28;;;;;;;;;;;;;;;25.86;70.27;100259.72;2072182;28;19921;-63
2021/08/13 00:22:28;;;;;;;;;;;;;;;25.86;70.36;100265.25;2073288;28;19921;-63
2021/08/13 00:23:28;;;;;;;;;;;;;;;25.86;70.48;100266.09;2072324;28;19935;-63
2021/08/13 00:24:29;;;;;;;;;;;;;;;25.85;70.29;100261.66;2074131;28;20023;-63
2021/08/13 00:25:29;;;;;;;;;;;;;;;25.84;70.26;100267.31;2073546;28;20336;-63
2021/08/13 00:26:29;;;;;;;;;;;;;;;25.84;70.43;100261.78;2073479;28;19932;-63
2021/08/13 00:27:30;;;;;;;;;;;;;;;25.82;70.40;100263.88;2078757;28;19920;-63
2021/08/13 00:28:30;;;;;;;;;;;;;;;25.83;70.42;100260.09;2080990;28;19920;-63
2021/08/13 00:29:30;;;;;;;;;;;;;;;25.83;70.35;100268.38;2071087;28;20784;-63
2021/08/13 00:30:31;;;;;;;;;;;;;;;25.83;70.17;100265.63;2072630;28;19978;-63
2021/08/13 00:31:31;;;;;;;;;;;;;;;25.83;70.31;100265.63;2073750;28;19917;-63
2021/08/13 00:32:31;;;;;;;;;;;;;;;25.82;70.36;100259.25;2074195;28;20982;-63
2021/08/13 00:33:32;;;;;;;;;;;;;;;25.82;70.20;100263.88;2072618;28;20626;-62
2021/08/13 00:34:32;;;;;;;;;;;;;;;25.82;70.34;100261.13;2073438;28;19911;-63
2021/08/13 00:35:32;;;;;;;;;;;;;;;25.81;70.06;100260.28;2076457;28;19972;-62
2021/08/13 00:36:33;;;;;;;;;;;;;;;25.82;70.13;100263.88;2075083;28;19920;-63
2021/08/13 00:37:33;;;;;;;;;;;;;;;25.81;70.07;100264.94;2073769;28;20031;-62
2021/08/13 00:38:33;;;;;;;;;;;;;;;25.82;70.28;100263.88;2071870;28;19924;-63
2021/08/13 00:39:34;;;;;;;;;;;;;;;25.83;70.25;100271.13;2074062;28;19945;-63
2021/08/13 00:40:34;;;;;;;;;;;;;;;25.82;69.92;100272.16;2073948;28;20652;-63
2021/08/13 00:41:34;;;;;;;;;;;;;;;25.83;69.96;100265.63;2075772;28;19924;-63
2021/08/13 00:42:35;;;;;;;;;;;;;;;25.82;70.36;100269.41;2075280;28;19921;-63
2021/08/13 00:43:35;;;;;;;;;;;;;;;25.81;69.91;100273.22;2074989;28;19917;-62
2021/08/13 00:44:35;;;;;;;;;;;;;;;25.80;69.85;100271.53;2075719;28;19979;-63
2021/08/13 00:45:35;;;;;;;;;;;;;;;25.81;69.85;100273.22;2074488;28;20083;-63
2021/08/13 00:46:36;;;;;;;;;;;;;;;25.82;70.02;100272.16;2073174;28;19950;-62
2021/08/13 00:47:36;;;;;;;;;;;;;;;25.80;70.13;100266.84;2074236;28;19924;-62
2021/08/13 00:48:38;;;;;;;;;;;;;;;25.80;69.85;100277.03;2073353;28;19924;-62
2021/08/13 00:49:38;;;;;;;;;;;;;;;25.80;70.17;100277.03;2074389;28;19921;-62
2021/08/13 00:50:38;;;;;;;;;;;;;;;25.82;70.03;100272.16;2075167;28;19963;-62
2021/08/13 00:51:39;;;;;;;;;;;;;;;25.80;69.97;100268.75;2075467;28;19925;-63
2021/08/13 00:52:39;;;;;;;;;;;;;;;25.80;69.84;100277.91;2073518;28;20296;-62
2021/08/13 00:53:39;;;;;;;;;;;;;;;25.79;69.64;100276.16;2073937;28;20023;-62
2021/08/13 00:54:40;;;;;;;;;;;;;;;25.79;69.95;100275.31;2073886;28;20002;-63
2021/08/13 00:55:40;;;;;;;;;;;;;;;25.79;70.00;100283.59;2073086;28;19978;-62
2021/08/13 00:56:41;;;;;;;;;;;;;;;25.80;69.61;100277.03;2073976;28;19921;-62
2021/08/13 00:57:41;;;;;;;;;;;;;;;25.81;69.65;100278.75;2075158;28;19924;-62
2021/08/13 00:58:42;;;;;;;;;;;;;;;25.80;69.58;100277.03;2075163;28;19987;-62
2021/08/13 00:59:42;;;;;;;;;;;;;;;25.82;69.53;100280.44;2074880;28;19944;-62
2021/08/13 01:00:43;;;;;;;;;;;;;;;25.80;69.78;100279.81;2074753;28;20028;-63
2021/08/13 01:01:43;;;;;;;;;;;;;;;25.80;69.96;100282.56;2071629;28;19964;-62
2021/08/13 01:02:44;;;;;;;;;;;;;;;25.79;69.90;100286.34;2073256;28;20829;-63
2021/08/13 01:03:44;;;;;;;;;;;;;;;25.79;69.87;100280.84;2074269;28;19989;-63
2021/08/13 01:04:44;;;;;;;;;;;;;;;25.79;69.85;100280.84;2074153;28;19952;-62
2021/08/13 01:05:45;;;;;;;;;;;;;;;25.80;69.87;100282.56;2073875;28;19955;-63
2021/08/13 01:06:45;;;;;;;;;;;;;;;25.80;69.57;100282.56;2074279;28;20260;-63
2021/08/13 01:07:45;;;;;;;;;;;;;;;25.80;69.78;100285.34;2074246;28;19990;-62
2021/08/13 01:08:46;;;;;;;;;;;;;;;25.80;69.63;100280.66;2075155;28;19913;-62
2021/08/13 01:09:46;;;;;;;;;;;;;;;25.80;69.78;100285.34;2075906;28;20007;-63
2021/08/13 01:10:59;;;;;;;;;;;;;;;25.80;69.50;100288.09;2074226;28;19989;-62
2021/08/13 01:12:02;;;;;;;;;;;;;;;25.79;69.85;100286.34;2074804;28;20051;-62
2021/08/13 01:13:02;;;;;;;;;;;;;;;25.79;69.80;100286.34;2074229;28;19916;-62
2021/08/13 01:14:22;;;;;;;;;;;;;;;25.79;69.73;100283.59;2073733;28;19913;-62
2021/08/13 01:15:24;;;;;;;;;;;;;;;25.79;69.74;100291.88;2073410;28;19913;-62
2021/08/13 01:16:26;;;;;;;;;;;;;;;25.78;69.73;100284.66;2073975;28;19948;-62
2021/08/13 01:17:29;;;;;;;;;;;;;;;25.78;69.71;100290.19;2075018;28;19973;-62
2021/08/13 01:18:31;;;;;;;;;;;;;;;25.78;69.71;100295.72;2074491;28;19920;-63
2021/08/13 01:19:31;;;;;;;;;;;;;;;25.78;69.80;100287.41;2074174;28;19920;-63
2021/08/13 01:20:50;;;;;;;;;;;;;;;25.78;69.83;100295.72;2075448;28;20527;-62
2021/08/13 01:21:50;;;;;;;;;;;;;;;25.77;69.51;100288.44;2075927;28;19925;-62
2021/08/13 01:23:06;;;;;;;;;;;;;;;25.78;69.49;100290.19;2074185;28;19913;-62
2021/08/13 01:24:26;;;;;;;;;;;;;;;25.78;69.62;100292.94;2072696;28;20667;-62
2021/08/13 01:25:29;;;;;;;;;;;;;;;25.77;69.35;100294.84;2073655;28;19984;-62
2021/08/13 01:26:32;;;;;;;;;;;;;;;25.79;69.40;100286.34;2082637;28;19917;-62
2021/08/13 01:27:38;;;;;;;;;;;;;;;25.78;69.47;100292.94;2081114;28;20690;-62
2021/08/13 01:28:48;;;;;;;;;;;;;;;25.77;69.32;100300.38;2074212;28;19921;-62
2021/08/13 01:29:48;;;;;;;;;;;;;;;25.77;69.34;100294.84;2074626;28;19956;-63
2021/08/13 01:30:48;;;;;;;;;;;;;;;25.78;69.44;100298.47;2072609;28;19939;-62
2021/08/13 01:32:09;;;;;;;;;;;;;;;25.76;69.66;100298.63;2074207;28;20344;-62
2021/08/13 01:33:12;;;;;;;;;;;;;;;25.76;69.57;100301.41;2055054;28;20509;-62
2021/08/13 01:34:13;;;;;;;;;;;;;;;25.76;69.33;100301.41;2068495;28;20536;-63
2021/08/13 01:35:33;;;;;;;;;;;;;;;25.76;69.50;100304.16;2074089;28;19924;-63
2021/08/13 01:36:34;;;;;;;;;;;;;;;25.75;69.52;100312.63;2072038;28;19965;-63
2021/08/13 01:37:36;;;;;;;;;;;;;;;25.76;69.48;100308.84;2073518;28;20910;-63
2021/08/13 01:38:37;;;;;;;;;;;;;;;25.74;69.50;100314.53;2075142;28;19921;-63
2021/08/13 01:39:37;;;;;;;;;;;;;;;25.75;69.30;100315.38;2073954;28;20427;-61
2021/08/13 01:40:39;;;;;;;;;;;;;;;25.74;69.36;100300.72;2075098;28;20317;-62
2021/08/13 01:41:40;;;;;;;;;;;;;;;25.74;69.26;100306.25;2064388;28;19917;-63
2021/08/13 01:42:41;;;;;;;;;;;;;;;25.75;69.22;100304.34;2073652;28;19924;-63
2021/08/13 01:43:43;;;;;;;;;;;;;;;25.75;69.00;100301.56;2074432;28;19996;-63
2021/08/13 01:44:44;;;;;;;;;;;;;;;25.75;69.09;100296.94;2073433;28;20002;-63
2021/08/13 01:45:45;;;;;;;;;;;;;;;25.77;69.19;100307.78;2075311;28;19925;-63
2021/08/13 01:46:46;;;;;;;;;;;;;;;25.76;69.28;100308.84;2073924;28;19920;-63
2021/08/13 01:47:47;;;;;;;;;;;;;;;25.77;69.26;100316.06;2075165;28;20019;-63
2021/08/13 01:48:48;;;;;;;;;;;;;;;25.76;69.24;100308.84;2073791;28;20363;-63
2021/08/13 01:49:49;;;;;;;;;;;;;;;25.76;69.22;100314.34;2073085;28;19925;-63
2021/08/13 01:50:50;;;;;;;;;;;;;;;25.76;69.06;100319.88;2072570;28;19917;-63
2021/08/13 01:51:51;;;;;;;;;;;;;;;25.75;69.35;100315.38;2073416;28;19951;-63
2021/08/13 01:52:53;;;;;;;;;;;;;;;25.75;69.30;100313.50;2072994;28;19921;-63
2021/08/13 01:53:54;;;;;;;;;;;;;;;25.75;69.29;100312.63;2075305;28;19933;-63
2021/08/13 01:54:55;;;;;;;;;;;;;;;25.75;69.04;100318.16;2073312;28;19920;-63
2021/08/13 01:55:56;;;;;;;;;;;;;;;25.74;69.25;100316.44;2075220;28;19921;-63
2021/08/13 01:56:57;;;;;;;;;;;;;;;25.74;69.29;100316.44;2073867;28;19924;-63
2021/08/13 01:57:57;;;;;;;;;;;;;;;25.74;69.13;100314.53;2073012;28;19917;-63
2021/08/13 01:58:59;;;;;;;;;;;;;;;25.74;69.14;100316.44;2074938;28;19917;-63
2021/08/13 02:00:00;;;;;;;;;;;;;;;25.74;69.06;100314.53;2073301;28;19932;-62
2021/08/13 02:01:00;;;;;;;;;;;;;;;25.73;69.10;100314.75;2074605;28;19963;-63
2021/08/13 02:02:01;;;;;;;;;;;;;;;25.73;68.91;100315.59;2072673;28;19921;-63
2021/08/13 02:03:02;;;;;;;;;;;;;;;25.73;68.92;100310.06;2074913;28;20399;-63
2021/08/13 02:04:03;;;;;;;;;;;;;;;25.74;69.18;100319.22;2075230;28;19909;-63
2021/08/13 02:05:04;;;;;;;;;;;;;;;25.72;68.96;100315.78;2072697;28;19908;-63
2021/08/13 02:06:04;;;;;;;;;;;;;;;25.72;69.14;100319.38;2078400;28;19955;-62
2021/08/13 02:07:05;;;;;;;;;;;;;;;25.72;68.88;100319.38;2072609;28;19947;-62
2021/08/13 02:08:06;;;;;;;;;;;;;;;25.73;68.99;100315.59;2073098;28;19990;-62
2021/08/13 02:09:07;;;;;;;;;;;;;;;25.73;68.89;100329.41;2074816;28;19916;-62
2021/08/13 02:10:08;;;;;;;;;;;;;;;25.73;69.09;100314.75;2075267;28;19952;-61
2021/08/13 02:11:09;;;;;;;;;;;;;;;25.73;68.87;100317.50;2074405;28;20300;-62
2021/08/13 02:12:09;;;;;;;;;;;;;;;25.73;68.97;100317.50;2074919;28;19912;-62
2021/08/13 02:13:10;;;;;;;;;;;;;;;25.74;69.02;100319.22;2074193;28;20311;-62
2021/08/13 02:14:10;;;;;;;;;;;;;;;25.73;68.91;100314.75;2074611;28;19916;-61
2021/08/13 02:15:11;;;;;;;;;;;;;;;25.73;68.95;100323.03;2073440;28;20447;-62
2021/08/13 02:16:13;;;;;;;;;;;;;;;25.72;68.73;100324.06;2074870;28;19970;-62
2021/08/13 02:17:18;;;;;;;;;;;;;;;25.72;68.92;100329.56;2074033;28;19933;-62
2021/08/13 02:18:25;;;;;;;;;;;;;;;25.72;68.73;100315.78;2074740;28;20391;-63
2021/08/13 02:19:37;;;;;;;;;;;;;;;25.73;68.85;100325.78;2072227;28;20338;-62
2021/08/13 02:20:39;;;;;;;;;;;;;;;25.72;68.58;100324.06;2072884;28;19928;-62
2021/08/13 02:21:43;;;;;;;;;;;;;;;25.73;68.62;100334.06;2073678;28;20058;-61
2021/08/13 02:22:43;;;;;;;;;;;;;;;25.73;68.81;100328.53;2072801;28;19964;-62
2021/08/13 02:23:44;;;;;;;;;;;;;;;25.73;68.83;100323.03;2074417;28;19921;-62
2021/08/13 02:24:44;;;;;;;;;;;;;;;25.72;68.77;100321.28;2073794;28;19925;-61
2021/08/13 02:25:44;;;;;;;;;;;;;;;25.73;68.56;100325.78;2072227;28;19924;-62
2021/08/13 02:26:45;;;;;;;;;;;;;;;25.73;68.78;100331.31;2074289;28;19979;-62
2021/08/13 02:27:46;;;;;;;;;;;;;;;25.72;68.36;100329.56;2071762;28;19913;-62
2021/08/13 02:28:46;;;;;;;;;;;;;;;25.73;68.57;100328.53;2074815;28;20740;-62
2021/08/13 02:29:47;;;;;;;;;;;;;;;25.73;68.83;100334.06;2074154;28;19924;-62
2021/08/13 02:30:47;;;;;;;;;;;;;;;25.72;68.48;100329.56;2074233;28;20473;-62
2021/08/13 02:31:48;;;;;;;;;;;;;;;25.72;68.40;100332.34;2074643;28;19925;-63
2021/08/13 02:32:48;;;;;;;;;;;;;;;25.72;68.72;100329.56;2075882;28;20601;-62
2021/08/13 02:33:49;;;;;;;;;;;;;;;25.71;68.68;100328.72;2073713;28;19921;-62
2021/08/13 02:34:50;;;;;;;;;;;;;;;25.71;68.66;100328.72;2074306;28;19986;-62
2021/08/13 02:35:53;;;;;;;;;;;;;;;25.71;68.37;100325.97;2073501;28;19920;-62
2021/08/13 02:37:00;;;;;;;;;;;;;;;25.72;68.39;100329.56;2074181;28;20022;-62
2021/08/13 02:38:05;;;;;;;;;;;;;;;25.72;68.65;100321.28;2072325;28;20787;-62
2021/08/13 02:39:22;;;;;;;;;;;;;;;25.72;68.34;100327.66;2071610;28;19998;-62
2021/08/13 02:40:27;;;;;;;;;;;;;;;25.71;68.37;100322.34;2073900;28;20669;-62
2021/08/13 02:41:31;;;;;;;;;;;;;;;25.72;68.38;100324.91;2073465;28;20303;-63
2021/08/13 02:42:50;;;;;;;;;;;;;;;25.70;68.67;100318.75;2074393;28;19924;-63
2021/08/13 02:43:56;;;;;;;;;;;;;;;25.70;68.38;100326.13;2073240;28;19952;-63
2021/08/13 02:44:59;;;;;;;;;;;;;;;25.71;68.36;100325.13;2074335;28;19932;-62
2021/08/13 02:46:00;;;;;;;;;;;;;;;25.70;68.58;100331.66;2074836;28;19917;-63
2021/08/13 02:47:03;;;;;;;;;;;;;;;25.70;68.47;100329.78;2073457;28;20001;-63
2021/08/13 02:48:05;;;;;;;;;;;;;;;25.70;68.33;100326.13;2073120;28;20665;-62
2021/08/13 02:49:06;;;;;;;;;;;;;;;25.70;68.36;100334.41;2072960;28;19928;-62
2021/08/13 02:50:07;;;;;;;;;;;;;;;25.68;68.38;100326.34;2074072;28;19999;-62
2021/08/13 02:51:09;;;;;;;;;;;;;;;25.70;68.33;100337.19;2074069;28;19931;-63
2021/08/13 02:52:09;;;;;;;;;;;;;;;25.70;68.42;100332.53;2074756;28;19923;-63
2021/08/13 02:53:13;;;;;;;;;;;;;;;25.69;68.38;100327.19;2075533;28;19920;-63
2021/08/13 02:54:17;;;;;;;;;;;;;;;25.71;68.36;100333.38;2074611;28;20696;-62
2021/08/13 02:55:20;;;;;;;;;;;;;;;25.68;68.55;100326.34;2070780;28;19948;-62
2021/08/13 02:56:24;;;;;;;;;;;;;;;25.69;68.37;100319.75;2072887;28;19943;-62
2021/08/13 02:57:25;;;;;;;;;;;;;;;25.69;68.45;100324.44;2073770;28;19928;-62
2021/08/13 02:58:30;;;;;;;;;;;;;;;25.69;68.50;100325.28;2074484;28;19926;-63
2021/08/13 02:59:31;;;;;;;;;;;;;;;25.69;68.36;100329.97;2073463;28;20378;-62
2021/08/13 03:00:32;;;;;;;;;;;;;;;25.69;68.60;100327.19;2073365;28;19917;-62
2021/08/13 03:01:33;;;;;;;;;;;;;;;25.69;68.44;100328.03;2072303;28;19920;-62
2021/08/13 03:02:34;;;;;;;;;;;;;;;25.69;68.30;100327.19;2074706;28;20379;-62
2021/08/13 03:03:35;;;;;;;;;;;;;;;25.69;68.32;100332.72;2073498;28;20007;-62
2021/08/13 03:04:37;;;;;;;;;;;;;;;25.68;68.31;100331.88;2073966;28;19920;-62
2021/08/13 03:05:42;;;;;;;;;;;;;;;25.67;68.60;100333.78;2073625;28;20326;-62
2021/08/13 03:06:43;;;;;;;;;;;;;;;25.69;68.50;100329.97;2073599;28;19927;-62
2021/08/13 03:07:43;;;;;;;;;;;;;;;25.67;68.28;100328.25;2073728;28;19920;-62
2021/08/13 03:08:45;;;;;;;;;;;;;;;25.67;68.19;100333.78;2072872;28;20072;-62
2021/08/13 03:09:46;;;;;;;;;;;;;;;25.68;68.29;100334.63;2073230;28;19916;-62
2021/08/13 03:10:47;;;;;;;;;;;;;;;25.69;68.31;100332.72;2073267;28;19920;-62
2021/08/13 03:11:49;;;;;;;;;;;;;;;25.69;68.41;100341.00;2072265;28;19917;-62
2021/08/13 03:12:49;;;;;;;;;;;;;;;25.69;68.35;100338.25;2073263;28;20636;-63
2021/08/13 03:13:50;;;;;;;;;;;;;;;25.69;68.26;100338.25;2075590;28;19921;-63
2021/08/13 03:14:50;;;;;;;;;;;;;;;25.68;68.50;100331.88;2073260;28;19947;-62
2021/08/13 03:15:52;;;;;;;;;;;;;;;25.67;68.35;100336.53;2071598;28;19913;-63
2021/08/13 03:16:53;;;;;;;;;;;;;;;25.69;68.29;100329.97;2072989;28;19931;-63
2021/08/13 03:17:54;;;;;;;;;;;;;;;25.69;68.36;100335.47;2074026;28;19963;-63
2021/08/13 03:18:54;;;;;;;;;;;;;;;25.67;68.50;100331.03;2072040;28;19924;-63
2021/08/13 03:19:55;;;;;;;;;;;;;;;25.67;68.27;100328.25;2073093;28;19918;-63
2021/08/13 03:20:56;;;;;;;;;;;;;;;25.67;68.59;100328.25;2073540;28;19917;-63
2021/08/13 03:21:57;;;;;;;;;;;;;;;25.69;68.38;100335.47;2073259;28;19917;-63
2021/08/13 03:22:57;;;;;;;;;;;;;;;25.69;68.26;100339.09;2073744;28;19924;-63
2021/08/13 03:23:58;;;;;;;;;;;;;;;25.69;68.35;100336.34;2071948;28;19935;-63
2021/08/13 03:24:59;;;;;;;;;;;;;;;25.69;68.35;100338.25;2073091;28;19928;-62
2021/08/13 03:26:00;;;;;;;;;;;;;;;25.67;68.46;100333.78;2074076;28;19916;-62
2021/08/13 03:27:01;;;;;;;;;;;;;;;25.67;68.43;100347.56;2074456;28;19920;-62
2021/08/13 03:28:03;;;;;;;;;;;;;;;25.67;68.22;100342.06;2072980;28;19924;-62
2021/08/13 03:29:05;;;;;;;;;;;;;;;25.67;68.29;100339.28;2070990;28;19936;-62
2021/08/13 03:30:05;;;;;;;;;;;;;;;25.67;68.32;100338.41;2073373;28;20346;-62
2021/08/13 03:31:06;;;;;;;;;;;;;;;25.67;68.28;100347.56;2080060;28;20063;-63
2021/08/13 03:32:06;;;;;;;;;;;;;;;25.69;68.30;100341.00;2078681;28;19916;-62
2021/08/13 03:33:10;;;;;;;;;;;;;;;25.66;68.24;100340.31;2072084;28;19962;-62
2021/08/13 03:34:12;;;;;;;;;;;;;;;25.68;68.35;100340.16;2073771;28;20560;-63
2021/08/13 03:35:13;;;;;;;;;;;;;;;25.66;68.48;100334.81;2074016;28;20384;-63
2021/08/13 03:36:13;;;;;;;;;;;;;;;25.67;68.25;100338.41;2073831;28;20303;-63
2021/08/13 03:37:13;;;;;;;;;;;;;;;25.67;68.28;100338.41;2074469;28;20079;-62
2021/08/13 03:38:14;;;;;;;;;;;;;;;25.66;68.37;100343.09;2074791;28;19967;-62
2021/08/13 03:39:14;;;;;;;;;;;;;;;25.66;68.28;100345.84;2072024;28;19912;-62
2021/08/13 03:40:14;;;;;;;;;;;;;;;25.66;68.39;100345.84;2074351;28;19920;-62
2021/08/13 03:41:18;;;;;;;;;;;;;;;25.66;68.52;100345.84;2073896;28;20853;-62
2021/08/13 03:42:18;;;;;;;;;;;;;;;25.66;68.57;100348.59;2074373;28;19927;-62
2021/08/13 03:43:18;;;;;;;;;;;;;;;25.66;68.51;100351.38;2072270;28;19925;-62
2021/08/13 03:44:19;;;;;;;;;;;;;;;25.66;68.34;100345.84;2074641;28;19925;-62
2021/08/13 03:45:19;;;;;;;;;;;;;;;25.67;68.59;100343.94;2072592;28;20015;-62
2021/08/13 03:46:19;;;;;;;;;;;;;;;25.66;68.23;100354.13;2073376;28;20061;-62
2021/08/13 03:47:20;;;;;;;;;;;;;;;25.65;68.34;100346.91;2074033;28;19920;-63
2021/08/13 03:48:20;;;;;;;;;;;;;;;25.67;68.52;100350.34;2073728;28;19924;-62
2021/08/13 03:49:20;;;;;;;;;;;;;;;25.66;68.54;100342.22;2075491;28;20731;-62
2021/08/13 03:50:21;;;;;;;;;;;;;;;25.66;68.34;100347.75;2074332;28;19920;-62
2021/08/13 03:51:21;;;;;;;;;;;;;;;25.65;68.35;100341.38;2074483;28;19990;-62
2021/08/13 03:52:21;;;;;;;;;;;;;;;25.66;68.26;100334.81;2073607;28;20580;-62
2021/08/13 03:53:22;;;;;;;;;;;;;;;25.66;68.24;100337.56;2072696;28;19967;-62
2021/08/13 03:54:22;;;;;;;;;;;;;;;25.65;68.24;100338.63;2074382;28;19924;-62
2021/08/13 03:55:22;;;;;;;;;;;;;;;25.65;68.35;100335.00;2073218;28;19921;-62
2021/08/13 03:56:23;;;;;;;;;;;;;;;25.65;68.56;100335.88;2073522;28;19924;-62
2021/08/13 03:57:23;;;;;;;;;;;;;;;25.65;68.52;100335.88;2073005;28;20020;-62
2021/08/13 03:58:23;;;;;;;;;;;;;;;25.65;68.49;100330.34;2073266;28;19920;-62
2021/08/13 03:59:23;;;;;;;;;;;;;;;25.64;68.19;100339.66;2074426;28;20008;-62
2021/08/13 04:00:24;;;;;;;;;;;;;;;25.65;68.27;100333.09;2072040;28;19916;-62
2021/08/13 04:01:24;;;;;;;;;;;;;;;25.64;68.27;100334.13;2072535;28;19916;-62
2021/08/13 04:02:24;;;;;;;;;;;;;;;25.64;68.34;100338.78;2073828;28;19928;-63
2021/08/13 04:03:25;;;;;;;;;;;;;;;25.65;68.52;100340.53;2070895;28;20110;-62
2021/08/13 04:04:25;;;;;;;;;;;;;;;25.64;68.51;100339.66;2075870;28;19925;-62
2021/08/13 04:05:30;;;;;;;;;;;;;;;25.65;68.58;100340.53;2073183;28;20403;-62
2021/08/13 04:06:30;;;;;;;;;;;;;;;25.65;68.60;100340.53;2073492;28;19924;-62
2021/08/13 04:07:31;;;;;;;;;;;;;;;25.64;68.43;100350.69;2073584;28;19927;-62
2021/08/13 04:08:31;;;;;;;;;;;;;;;25.63;68.29;100349.00;2073445;28;19909;-62
2021/08/13 04:09:31;;;;;;;;;;;;;;;25.64;68.41;100356.22;2073279;28;19948;-62
2021/08/13 04:10:32;;;;;;;;;;;;;;;25.65;68.21;100351.56;2072588;28;20002;-63
2021/08/13 04:11:32;;;;;;;;;;;;;;;25.64;68.30;100347.94;2075243;28;20854;-62
2021/08/13 04:12:32;;;;;;;;;;;;;;;25.63;68.36;100351.75;2074914;28;19917;-62
2021/08/13 04:13:33;;;;;;;;;;;;;;;25.64;68.34;100355.34;2082793;28;19916;-62
2021/08/13 04:14:33;;;;;;;;;;;;;;;25.63;68.28;100349.00;2083421;28;20835;-62
2021/08/13 04:15:33;;;;;;;;;;;;;;;25.64;68.42;100349.84;2074772;28;20582;-62
2021/08/13 04:16:34;;;;;;;;;;;;;;;25.64;68.45;100350.69;2074719;28;19921;-62
2021/08/13 04:17:34;;;;;;;;;;;;;;;25.64;68.20;100353.44;2074446;28;19933;-62
2021/08/13 04:18:34;;;;;;;;;;;;;;;25.64;68.25;100350.69;2076328;28;19935;-62
2021/08/13 04:19:35;;;;;;;;;;;;;;;25.62;68.50;100347.25;2083812;28;20322;-62
2021/08/13 04:20:35;;;;;;;;;;;;;;;25.64;68.33;100347.06;2082365;28;19990;-62
2021/08/13 04:21:35;;;;;;;;;;;;;;;25.64;68.34;100350.69;2074889;28;20330;-62
2021/08/13 04:22:35;;;;;;;;;;;;;;;25.64;68.35;100356.22;2075705;28;19960;-62
2021/08/13 04:23:36;;;;;;;;;;;;;;;25.63;68.47;100354.50;2076208;28;19928;-62
2021/08/13 04:24:37;;;;;;;;;;;;;;;25.64;68.35;100344.31;2075671;28;19927;-62
2021/08/13 04:25:38;;;;;;;;;;;;;;;25.63;68.63;100357.28;2074431;28;19921;-62
2021/08/13 04:26:38;;;;;;;;;;;;;;;25.64;68.60;100349.84;2075072;28;19995;-62
2021/08/13 04:27:38;;;;;;;;;;;;;;;25.63;68.62;100360.03;2075455;28;21015;-62
2021/08/13 04:28:39;;;;;;;;;;;;;;;25.64;68.40;100356.22;2078358;28;20668;-62
2021/08/13 04:29:39;;;;;;;;;;;;;;;25.64;68.24;100355.34;2075092;28;20694;-61
2021/08/13 04:30:39;;;;;;;;;;;;;;;25.64;68.32;100360.88;2075497;28;19913;-62
2021/08/13 04:31:40;;;;;;;;;;;;;;;25.63;68.49;100360.03;2076660;28;19927;-62
2021/08/13 04:32:40;;;;;;;;;;;;;;;25.64;68.47;100355.34;2073976;28;19913;-62
2021/08/13 04:33:41;;;;;;;;;;;;;;;25.63;68.33;100360.03;2075301;28;19936;-62
2021/08/13 04:34:41;;;;;;;;;;;;;;;25.63;68.20;100357.28;2073201;28;19978;-62
2021/08/13 04:35:41;;;;;;;;;;;;;;;25.64;68.34;100364.50;2076044;28;19913;-62
2021/08/13 04:36:41;;;;;;;;;;;;;;;25.64;68.26;100361.72;2075570;28;19923;-62
2021/08/13 04:37:42;;;;;;;;;;;;;;;25.63;68.63;100365.56;2074178;28;19921;-62
2021/08/13 04:38:42;;;;;;;;;;;;;;;25.64;68.24;100360.88;2074105;28;20777;-63
2021/08/13 04:39:42;;;;;;;;;;;;;;;25.63;68.43;100359.19;2075633;28;20035;-62
2021/08/13 04:40:43;;;;;;;;;;;;;;;25.63;68.26;100365.56;2073338;28;19978;-62
2021/08/13 04:41:44;;;;;;;;;;;;;;;25.63;68.41;100365.56;2076163;28;19921;-62
2021/08/13 04:42:44;;;;;;;;;;;;;;;25.62;68.41;100369.34;2075075;28;21289;-62
2021/08/13 04:43:44;;;;;;;;;;;;;;;25.63;68.32;100365.56;2074556;28;19928;-62
2021/08/13 04:44:45;;;;;;;;;;;;;;;25.63;68.34;100364.69;2075698;28;19920;-62
2021/08/13 04:45:45;;;;;;;;;;;;;;;25.63;68.53;100370.22;2074960;28;19940;-62
2021/08/13 04:46:45;;;;;;;;;;;;;;;25.62;68.42;100361.06;2075001;28;19928;-62
2021/08/13 04:47:46;;;;;;;;;;;;;;;25.62;68.37;100363.81;2075105;28;20342;-62
2021/08/13 04:48:46;;;;;;;;;;;;;;;25.63;68.43;100364.69;2074785;28;19970;-62
2021/08/13 04:49:46;;;;;;;;;;;;;;;25.62;68.34;100366.56;2074887;28;19952;-62
2021/08/13 04:50:47;;;;;;;;;;;;;;;25.62;68.28;100363.81;2074870;28;20407;-62
2021/08/13 04:51:47;;;;;;;;;;;;;;;25.63;68.50;100365.56;2074368;28;19974;-62
2021/08/13 04:52:49;;;;;;;;;;;;;;;25.62;68.52;100363.81;2075191;28;20651;-62
2021/08/13 04:53:49;;;;;;;;;;;;;;;25.63;68.44;100365.56;2073930;28;19925;-62
2021/08/13 04:54:49;;;;;;;;;;;;;;;25.63;68.50;100360.03;2076077;28;19921;-62
2021/08/13 04:55:50;;;;;;;;;;;;;;;25.63;68.59;100365.56;2073673;28;19968;-63
2021/08/13 04:56:50;;;;;;;;;;;;;;;25.63;68.56;100362.78;2075536;28;20387;-63
2021/08/13 04:57:51;;;;;;;;;;;;;;;25.63;68.29;100368.31;2074704;28;19925;-63
2021/08/13 04:58:52;;;;;;;;;;;;;;;25.63;68.32;100365.56;2075837;28;20066;-63
2021/08/13 04:59:52;;;;;;;;;;;;;;;25.61;68.54;100362.13;2075446;28;19917;-63
2021/08/13 05:00:53;;;;;;;;;;;;;;;25.62;68.53;100363.81;2077496;28;20334;-63
2021/08/13 05:01:53;;;;;;;;;;;;;;;25.62;68.63;100362.97;2074809;28;19917;-63
2021/08/13 05:02:53;;;;;;;;;;;;;;;25.62;68.22;100363.81;2074335;28;19925;-63
2021/08/13 05:03:53;;;;;;;;;;;;;;;25.61;68.43;100362.13;2075521;28;19928;-63
2021/08/13 05:04:58;;;;;;;;;;;;;;;25.62;68.36;100360.22;2075013;28;19991;-63
2021/08/13 05:05:58;;;;;;;;;;;;;;;25.62;68.42;100363.81;2074436;28;19917;-61
2021/08/13 05:06:59;;;;;;;;;;;;;;;25.62;68.49;100358.28;2074854;28;20407;-62
2021/08/13 05:07:59;;;;;;;;;;;;;;;25.61;68.59;100356.59;2076129;28;20451;-62
2021/08/13 05:08:59;;;;;;;;;;;;;;;25.61;68.57;100362.13;2075386;28;20612;-62
2021/08/13 05:10:04;;;;;;;;;;;;;;;25.62;68.30;100360.22;2075771;28;19924;-62
2021/08/13 05:11:04;;;;;;;;;;;;;;;25.61;68.52;100362.13;2074501;28;20452;-62
2021/08/13 05:12:05;;;;;;;;;;;;;;;25.63;68.40;100360.03;2082617;28;20295;-62
2021/08/13 05:13:05;;;;;;;;;;;;;;;25.62;68.20;100363.81;2082899;28;20787;-62
2021/08/13 05:14:06;;;;;;;;;;;;;;;25.62;68.60;100365.72;2075492;28;19921;-62
2021/08/13 05:15:07;;;;;;;;;;;;;;;25.61;68.34;100361.25;2075156;28;19920;-62